Abram, Texas
Current Conditions -  °F | °C
As of 10:53 PM on Sunday 19 Oct 2014 (Local Time) from KMFE Reporting Station
Clear Clear  
Wind Chill: 24°   Ceiling: Unl
Heat Index: 24°   Visibility: 10mi
Dew Point: 19°   Wind: 7mph
Humidity: 74%   Direction: 80°E
Pressure: 29.98"   Gusts: NA
Location:  26.2167°N, 98.325°W
Report Text: KMFE 200353Z 08006KT 10SM CLR 24/19 A2998 RMK AO2 SLP150 T02440194
Loading
Personal Weather Stations






























Interactive Weather Map
Tropical Storm Tracking
New forecast layout! Learn more

10-Day Weather Forecast

Advertisements
Track Severe Weather on mobile